Time;durP1;ratioP1;P1;durP2;ratioP2;P2;SDS_P1;SDS_P2;PMS_P1;PMS_P2;Temp;Humidity;BMP_temperature;BMP_pressure;BME280_temperature;BME280_humidity;BME280_pressure;Samples;Min_cycle;Max_cycle;Signal;HPM_P1;HPM_P2
2022/10/07 00:01:52;;;;;;;6.37;4.90;;;;;;;10.64;100.00;100636.00;6275294;22;20208;-88
2022/10/07 00:04:18;;;;;;;5.97;5.03;;;;;;;10.57;100.00;100635.16;6247878;22;20207;-89
2022/10/07 00:06:45;;;;;;;5.43;4.93;;;;;;;10.57;100.00;100644.03;6273672;22;20200;-88
2022/10/07 00:09:12;;;;;;;5.70;4.57;;;;;;;10.53;100.00;100636.56;6248218;22;20731;-85
2022/10/07 00:11:39;;;;;;;7.90;4.87;;;;;;;10.50;100.00;100636.94;6248352;22;20204;-88
2022/10/07 00:14:09;;;;;;;5.53;5.03;;;;;;;10.44;100.00;100638.56;6274318;22;20204;-89
2022/10/07 00:16:38;;;;;;;6.93;5.10;;;;;;;10.47;100.00;100642.69;6266671;22;20215;-89
2022/10/07 00:19:07;;;;;;;6.37;5.17;;;;;;;10.41;100.00;100638.09;6217673;23;20204;-88
2022/10/07 00:21:35;;;;;;;6.90;5.03;;;;;;;10.41;100.00;100630.91;6192499;23;20556;-89
2022/10/07 00:24:03;;;;;;;7.47;5.20;;;;;;;10.39;100.00;100637.47;6243728;23;20267;-89
2022/10/07 00:26:31;;;;;;;5.60;5.10;;;;;;;10.38;100.00;100636.66;6217783;23;20227;-89
2022/10/07 00:28:58;;;;;;;7.23;5.00;;;;;;;10.37;100.00;100631.47;6205496;22;20229;-88
2022/10/07 00:31:27;;;;;;;7.63;5.23;;;;;;;10.32;100.00;100624.03;6255500;22;20205;-88
2022/10/07 00:33:55;;;;;;;7.60;5.77;;;;;;;10.34;100.00;100632.72;6192875;23;20200;-87
2022/10/07 00:36:24;;;;;;;8.27;5.20;;;;;;;10.34;100.00;100619.31;6217096;23;20560;-88
2022/10/07 00:38:59;;;;;;;6.00;5.40;;;;;;;10.40;100.00;100618.53;6242658;23;20205;-88
2022/10/07 00:41:31;;;;;;;7.67;5.00;;;;;;;10.43;100.00;100628.03;6242549;23;20215;-88
2022/10/07 00:43:59;;;;;;;5.80;5.20;;;;;;;10.35;100.00;100623.66;6217141;23;20920;-85
2022/10/07 00:46:32;;;;;;;6.40;4.87;;;;;;;10.31;100.00;100627.72;6241791;23;20201;-85
2022/10/07 00:49:02;;;;;;;7.40;5.10;;;;;;;10.23;100.00;100616.31;6217073;23;20259;-86
2022/10/07 00:51:31;;;;;;;6.33;5.20;;;;;;;10.22;100.00;100612.00;6217092;23;20205;-88
2022/10/07 00:54:02;;;;;;;6.63;5.70;;;;;;;10.17;100.00;100617.13;6243753;22;20262;-84
2022/10/07 00:56:29;;;;;;;6.00;5.10;;;;;;;10.15;100.00;100612.78;6243401;23;20231;-84
2022/10/07 00:58:58;;;;;;;7.93;5.10;;;;;;;10.16;100.00;100602.91;6243619;22;20219;-85
2022/10/07 01:01:25;;;;;;;6.53;5.20;;;;;;;10.13;100.00;100598.69;6217155;23;20208;-82
2022/10/07 01:03:53;;;;;;;8.23;5.37;;;;;;;10.19;100.00;100601.66;6243026;22;20216;-81
2022/10/07 01:06:19;;;;;;;6.80;5.13;;;;;;;10.19;100.00;100596.31;6242843;22;20213;-82
2022/10/07 01:08:47;;;;;;;7.97;4.90;;;;;;;10.12;100.00;100598.91;6242689;22;20634;-82
2022/10/07 01:11:16;;;;;;;6.50;5.20;;;;;;;9.98;100.00;100618.56;6243324;22;20215;-83
2022/10/07 01:14:22;;;;;;;7.03;5.20;;;;;;;9.94;100.00;100614.59;6242836;22;20652;-83
2022/10/07 01:17:11;;;;;;;6.70;4.50;;;;;;;9.89;100.00;100603.66;6242695;23;20204;-83
2022/10/07 01:19:58;;;;;;;6.27;4.80;;;;;;;9.85;100.00;100584.44;6216690;23;20219;-84
2022/10/07 01:22:47;;;;;;;5.60;5.10;;;;;;;9.82;100.00;100603.56;6215751;23;20519;-86
2022/10/07 01:25:40;;;;;;;6.17;5.00;;;;;;;9.83;100.00;100596.38;6243441;22;20299;-84
2022/10/07 01:28:12;;;;;;;5.93;5.10;;;;;;;9.81;100.00;100601.91;6242476;22;20732;-84
2022/10/07 01:30:43;;;;;;;5.17;4.70;;;;;;;9.75;100.00;100583.97;6217085;23;20200;-83
2022/10/07 01:33:14;;;;;;;6.00;5.03;;;;;;;9.74;100.00;100601.03;6179129;23;20201;-83
2022/10/07 01:35:42;;;;;;;5.60;4.80;;;;;;;9.69;100.00;100601.59;6243216;22;20284;-81
2022/10/07 01:38:10;;;;;;;7.20;4.90;;;;;;;9.69;100.00;100588.22;6240504;22;20250;-80
2022/10/07 01:40:47;;;;;;;6.80;4.87;;;;;;;9.70;100.00;100586.38;6216173;23;20278;-81
2022/10/07 01:43:17;;;;;;;6.00;5.10;;;;;;;9.71;100.00;100594.19;6191522;23;20292;-81
2022/10/07 01:45:43;;;;;;;5.77;4.63;;;;;;;9.67;100.00;100592.09;6216314;23;20205;-83
2022/10/07 01:48:10;;;;;;;5.87;4.87;;;;;;;9.60;100.00;100596.56;6242128;22;20251;-81
2022/10/07 01:50:37;;;;;;;5.27;4.77;;;;;;;9.61;100.00;100582.97;6242739;22;20204;-82
2022/10/07 01:53:11;;;;;;;5.80;5.10;;;;;;;9.67;100.00;100595.59;6266104;22;20215;-83
2022/10/07 01:55:57;;;;;;;5.73;4.53;;;;;;;9.58;100.00;100588.72;6215926;23;20307;-82
2022/10/07 01:58:34;;;;;;;8.37;5.00;;;;;;;9.51;100.00;100577.13;6266474;22;20204;-81
2022/10/07 02:01:12;;;;;;;8.63;5.00;;;;;;;9.48;100.00;100561.44;6191569;23;20201;-85
2022/10/07 02:04:17;;;;;;;6.60;5.40;;;;;;;9.46;100.00;100574.19;6242504;22;20224;-85
2022/10/07 02:07:06;;;;;;;5.90;4.80;;;;;;;9.49;100.00;100563.09;6186844;23;20201;-83
2022/10/07 02:09:37;;;;;;;6.37;4.80;;;;;;;9.47;100.00;100550.94;6241541;23;20197;-80
2022/10/07 02:12:17;;;;;;;6.80;4.83;;;;;;;9.54;100.00;100571.38;6240665;22;20641;-79
2022/10/07 02:15:12;;;;;;;6.10;4.93;;;;;;;9.55;100.00;100572.22;6242695;22;20249;-80
2022/10/07 02:17:44;;;;;;;6.80;4.90;;;;;;;9.51;100.00;100579.81;6237870;23;20592;-81
2022/10/07 02:20:13;;;;;;;7.40;5.03;;;;;;;9.46;100.00;100568.84;6215329;22;20231;-81
2022/10/07 02:22:41;;;;;;;5.33;4.67;;;;;;;9.46;100.00;100584.88;6216178;23;20205;-81
2022/10/07 02:25:09;;;;;;;6.67;4.87;;;;;;;9.44;100.00;100562.84;6241279;23;20204;-82
2022/10/07 02:27:37;;;;;;;6.13;5.07;;;;;;;9.42;100.00;100575.59;6231758;22;20203;-81
2022/10/07 02:30:11;;;;;;;6.23;4.80;;;;;;;9.38;100.00;100571.63;6194743;23;20295;-82
2022/10/07 02:32:41;;;;;;;5.53;4.97;;;;;;;9.37;100.00;100548.59;6218649;22;20275;-82
2022/10/07 02:35:17;;;;;;;5.77;5.10;;;;;;;9.34;100.00;100562.31;6216031;23;20254;-83
2022/10/07 02:37:46;;;;;;;5.53;4.83;;;;;;;9.32;100.00;100558.19;6191513;23;20192;-81
2022/10/07 02:40:13;;;;;;;9.00;5.00;;;;;;;9.29;100.00;100559.38;6215263;22;20215;-82
2022/10/07 02:43:00;;;;;;;5.87;5.10;;;;;;;9.25;100.00;100536.69;6215396;23;20209;-82
2022/10/07 02:45:33;;;;;;;5.90;4.67;;;;;;;9.23;100.00;100536.91;6241437;22;20717;-82
2022/10/07 02:48:13;;;;;;;8.70;5.83;;;;;;;9.23;100.00;100569.00;6242752;22;20201;-82
2022/10/07 02:50:43;;;;;;;6.90;5.00;;;;;;;9.21;100.00;100573.69;6214819;23;20231;-81
2022/10/07 02:53:11;;;;;;;5.97;5.37;;;;;;;9.20;100.00;100561.34;6193111;23;20219;-83
2022/10/07 02:55:39;;;;;;;5.97;5.23;;;;;;;9.16;100.00;100549.38;6218426;23;20208;-82
2022/10/07 02:58:08;;;;;;;6.50;5.33;;;;;;;9.19;100.00;100564.22;6192204;22;20590;-81
2022/10/07 03:00:38;;;;;;;7.57;5.80;;;;;;;9.19;100.00;100558.88;6193056;23;20208;-81
2022/10/07 03:03:06;;;;;;;5.70;5.23;;;;;;;9.09;100.00;100561.84;6193543;23;20212;-83
2022/10/07 03:05:48;;;;;;;5.80;5.30;;;;;;;9.05;100.00;100551.72;6241124;23;20258;-81
2022/10/07 03:08:15;;;;;;;6.27;5.67;;;;;;;8.99;100.00;100552.44;6269279;22;20216;-83
2022/10/07 03:10:42;;;;;;;7.20;5.30;;;;;;;8.94;100.00;100553.00;6244265;23;20849;-83
2022/10/07 03:13:11;;;;;;;6.07;5.53;;;;;;;8.91;100.00;100564.09;6242945;23;20775;-81
2022/10/07 03:15:40;;;;;;;5.73;5.20;;;;;;;8.89;100.00;100560.75;6217796;23;20266;-81
2022/10/07 03:18:25;;;;;;;6.37;5.53;;;;;;;8.88;100.00;100543.06;6217356;22;20200;-82
2022/10/07 03:20:59;;;;;;;6.67;5.70;;;;;;;8.88;100.00;100510.16;6217684;23;20648;-81
2022/10/07 03:23:30;;;;;;;6.73;5.57;;;;;;;8.89;100.00;100544.72;6244704;22;20204;-82
2022/10/07 03:25:58;;;;;;;5.70;5.20;;;;;;;8.87;100.00;100540.56;6193454;23;20204;-82
2022/10/07 03:28:26;;;;;;;5.63;5.13;;;;;;;8.85;100.00;100559.47;6244127;22;20704;-81
2022/10/07 03:30:54;;;;;;;6.07;5.47;;;;;;;8.85;100.00;100543.44;6268456;22;20211;-83
2022/10/07 03:33:24;;;;;;;5.33;4.83;;;;;;;8.79;100.00;100542.34;6243558;23;20251;-83
2022/10/07 03:35:52;;;;;;;6.27;5.17;;;;;;;8.84;100.00;100539.94;6243555;23;20278;-83
2022/10/07 03:38:20;;;;;;;6.13;5.33;;;;;;;8.82;100.00;100541.13;6218395;22;20208;-84
2022/10/07 03:40:48;;;;;;;6.27;5.40;;;;;;;8.81;100.00;100548.34;6219339;23;20207;-83
2022/10/07 03:43:15;;;;;;;5.40;4.60;;;;;;;8.77;100.00;100541.69;6220387;23;20664;-83
2022/10/07 03:45:43;;;;;;;5.03;4.60;;;;;;;8.80;100.00;100541.31;6219181;23;20227;-82
2022/10/07 03:48:11;;;;;;;5.60;4.40;;;;;;;8.78;100.00;100529.97;6193376;22;20209;-83
2022/10/07 03:50:38;;;;;;;6.70;4.83;;;;;;;8.78;100.00;100537.16;6243539;23;20279;-82
2022/10/07 03:53:05;;;;;;;5.97;5.03;;;;;;;8.80;100.00;100532.47;6244845;22;20209;-83
2022/10/07 03:55:31;;;;;;;5.57;4.77;;;;;;;8.78;100.00;100538.00;6249581;22;20223;-82
2022/10/07 03:57:58;;;;;;;5.70;5.20;;;;;;;8.72;100.00;100536.09;6252154;22;20208;-82
2022/10/07 04:00:27;;;;;;;5.40;4.90;;;;;;;8.64;100.00;100530.00;6224611;22;20192;-82
2022/10/07 04:02:55;;;;;;;5.73;4.90;;;;;;;8.61;100.00;100531.19;6252282;22;20208;-82
2022/10/07 04:05:23;;;;;;;6.53;5.93;;;;;;;8.65;100.00;100534.31;6276910;22;20258;-82
2022/10/07 04:07:51;;;;;;;6.20;5.47;;;;;;;8.63;100.00;100529.16;6248836;22;20253;-82
2022/10/07 04:10:18;;;;;;;5.80;5.20;;;;;;;8.60;100.00;100510.00;6193893;22;20213;-82
2022/10/07 04:12:47;;;;;;;5.97;5.37;;;;;;;8.62;100.00;100516.84;6217822;23;20196;-82
2022/10/07 04:15:14;;;;;;;6.30;5.70;;;;;;;8.65;100.00;100516.47;6268655;22;20215;-82
2022/10/07 04:17:43;;;;;;;7.40;5.57;;;;;;;8.63;100.00;100512.31;6268341;22;20215;-81
2022/10/07 04:20:14;;;;;;;5.80;5.30;;;;;;;8.61;100.00;100517.84;6216623;22;20258;-81
2022/10/07 04:22:41;;;;;;;7.60;5.57;;;;;;;8.60;100.00;100515.34;6217040;23;20279;-82
2022/10/07 04:27:57;;;;;;;7.87;5.87;;;;;;;8.58;100.00;100504.03;6217296;23;20660;-81
2022/10/07 04:30:27;;;;;;;6.40;5.60;;;;;;;8.57;100.00;100508.56;6198643;22;20200;-82
2022/10/07 04:32:54;;;;;;;6.73;6.03;;;;;;;8.56;100.00;100512.22;6250544;22;20210;-82
2022/10/07 04:35:22;;;;;;;6.63;6.03;;;;;;;8.59;100.00;100522.53;6250924;22;20200;-83
2022/10/07 04:37:52;;;;;;;7.10;6.00;;;;;;;8.57;100.00;100510.38;6244832;22;20205;-82
2022/10/07 04:40:22;;;;;;;9.80;8.07;;;;;;;8.63;100.00;100505.13;6250017;22;20303;-82
2022/10/07 04:46:05;;;;;;;10.53;7.07;;;;;;;8.60;100.00;100488.63;6125490;23;20211;-81
2022/10/07 04:48:34;;;;;;;7.97;7.17;;;;;;;8.61;100.00;100499.16;6101378;23;20223;-81
2022/10/07 04:51:09;;;;;;;9.37;6.97;;;;;;;8.61;100.00;100484.97;6174699;23;20213;-82
2022/10/07 04:53:38;;;;;;;8.53;7.23;;;;;;;8.59;100.00;100495.00;6219547;23;20207;-82
2022/10/07 04:56:07;;;;;;;7.20;6.50;;;;;;;8.61;100.00;100509.00;6247004;22;20205;-82
2022/10/07 04:58:35;;;;;;;7.13;6.43;;;;;;;8.66;100.00;100520.78;6196326;23;20283;-82
2022/10/07 05:01:07;;;;;;;8.03;6.50;;;;;;;8.60;100.00;100502.00;6221496;23;20846;-82
2022/10/07 05:03:38;;;;;;;7.77;6.40;;;;;;;8.59;100.00;100490.47;6196266;23;20653;-83
2022/10/07 05:06:07;;;;;;;7.60;6.50;;;;;;;8.61;100.00;100504.50;6194688;22;20664;-81
2022/10/07 05:08:35;;;;;;;6.83;6.20;;;;;;;8.59;100.00;100495.00;6220760;23;20258;-82
2022/10/07 05:11:04;;;;;;;6.87;5.93;;;;;;;8.57;100.00;100483.69;6217490;23;20255;-82
2022/10/07 05:13:38;;;;;;;7.30;6.60;;;;;;;8.64;100.00;100504.09;6217975;23;20232;-82
2022/10/07 05:16:08;;;;;;;7.50;6.00;;;;;;;8.63;100.00;100499.78;6219042;22;20669;-82
2022/10/07 05:18:38;;;;;;;6.90;6.20;;;;;;;8.63;100.00;100507.78;6219478;23;20204;-82
2022/10/07 05:21:08;;;;;;;6.97;5.93;;;;;;;8.69;100.00;100507.06;6218638;23;20216;-83
2022/10/07 05:23:39;;;;;;;9.47;6.23;;;;;;;8.73;100.00;100507.50;6195457;23;20235;-82
2022/10/07 05:26:13;;;;;;;7.03;6.13;;;;;;;8.75;100.00;100514.34;6219047;22;20250;-82
2022/10/07 05:28:44;;;;;;;9.77;6.20;;;;;;;8.78;100.00;100497.09;6219338;23;20680;-83
2022/10/07 05:31:14;;;;;;;7.50;6.47;;;;;;;8.82;100.00;100509.06;6219280;23;20192;-82
2022/10/07 05:33:46;;;;;;;9.23;8.33;;;;;;;8.93;100.00;100487.19;6194978;23;20255;-83
2022/10/07 05:36:13;;;;;;;9.70;7.07;;;;;;;8.97;100.00;100495.66;6244992;22;20231;-83
2022/10/07 05:38:41;;;;;;;8.00;6.97;;;;;;;9.03;100.00;100492.25;6249019;22;20209;-82
2022/10/07 05:41:10;;;;;;;9.00;6.03;;;;;;;9.21;100.00;100493.47;6244151;22;20200;-82
2022/10/07 05:43:41;;;;;;;7.57;6.30;;;;;;;9.20;100.00;100480.28;6217116;23;20208;-82
2022/10/07 05:46:13;;;;;;;6.50;5.90;;;;;;;9.32;100.00;100451.22;6192855;22;20212;-82
2022/10/07 05:48:46;;;;;;;7.07;6.00;;;;;;;9.38;100.00;100478.00;6267586;22;20204;-81
2022/10/07 05:51:13;;;;;;;6.60;5.80;;;;;;;9.50;100.00;100481.00;6191445;23;20592;-81
2022/10/07 05:53:41;;;;;;;7.93;6.60;;;;;;;9.64;100.00;100480.94;6244243;22;20211;-82
2022/10/07 05:56:11;;;;;;;9.17;7.07;;;;;;;9.79;100.00;100494.25;6235950;23;20250;-83
2022/10/07 05:58:38;;;;;;;8.97;7.10;;;;;;;9.90;100.00;100479.47;6187110;23;20304;-84
2022/10/07 06:01:12;;;;;;;7.20;6.47;;;;;;;10.02;100.00;100491.31;6185999;23;20205;-84
2022/10/07 06:03:41;;;;;;;7.67;6.57;;;;;;;10.13;100.00;100494.28;6236611;23;20224;-83
2022/10/07 06:06:09;;;;;;;10.23;7.43;;;;;;;10.23;100.00;100496.63;6212659;23;20211;-84
2022/10/07 06:08:36;;;;;;;8.40;7.20;;;;;;;10.32;100.00;100479.38;6160139;23;20284;-86
2022/10/07 06:13:51;;;;;;;9.77;7.80;;;;;;;10.60;100.00;100506.13;6163251;23;20209;-85
2022/10/07 06:16:18;;;;;;;8.10;6.77;;;;;;;10.76;100.00;100491.56;6181493;23;20201;-85
2022/10/07 06:18:49;;;;;;;8.13;6.83;;;;;;;10.88;100.00;100482.75;6183496;23;20232;-84
2022/10/07 06:21:17;;;;;;;11.10;7.47;;;;;;;11.02;100.00;100491.66;6233448;23;20206;-84
2022/10/07 06:23:50;;;;;;;8.67;7.27;;;;;;;11.15;100.00;100488.22;6210156;23;20216;-85
2022/10/07 06:26:21;;;;;;;9.20;7.37;;;;;;;11.28;100.00;100498.97;6194414;23;20279;-83
2022/10/07 06:28:49;;;;;;;12.13;6.80;;;;;;;11.42;100.00;100500.63;6160535;23;20224;-82
2022/10/07 06:31:24;;;;;;;9.47;7.43;;;;;;;11.50;100.00;100478.97;6183080;23;20622;-82
2022/10/07 06:33:57;;;;;;;8.03;6.80;;;;;;;11.68;100.00;100484.56;6183836;23;20558;-82
2022/10/07 06:36:24;;;;;;;10.73;7.20;;;;;;;11.78;100.00;100486.84;6183311;23;20202;-82
2022/10/07 06:38:54;;;;;;;10.23;7.10;;;;;;;11.74;100.00;100486.47;6185154;23;20205;-82
2022/10/07 06:41:26;;;;;;;11.53;6.80;;;;;;;11.80;100.00;100488.28;6185207;23;20205;-84
2022/10/07 06:44:05;;;;;;;8.33;6.73;;;;;;;11.92;100.00;100475.09;6171053;23;20242;-82
2022/10/07 06:46:33;;;;;;;10.33;6.90;;;;;;;12.13;100.00;100490.97;6208653;23;20252;-82
2022/10/07 06:49:00;;;;;;;8.77;6.90;;;;;;;12.21;100.00;100480.00;6185095;23;20232;-82
2022/10/07 06:51:26;;;;;;;8.13;7.20;;;;;;;12.31;100.00;100495.72;6184849;23;20257;-82
2022/10/07 06:53:56;;;;;;;8.47;7.33;;;;;;;12.44;100.00;100490.28;6184895;23;20248;-83
2022/10/07 06:56:25;;;;;;;9.50;7.17;;;;;;;12.61;100.00;100496.84;6160182;23;20290;-82
2022/10/07 06:58:51;;;;;;;9.60;6.83;;;;;;;12.62;100.00;100495.00;6160678;23;20215;-82
2022/10/07 07:01:28;;;;;;;9.53;7.10;;;;;;;12.73;100.00;100483.59;6185733;23;20206;-82
2022/10/07 07:03:55;;;;;;;11.50;7.57;;;;;;;12.85;100.00;100479.19;6185117;23;20313;-83
2022/10/07 07:06:22;;;;;;;11.37;8.07;;;;;;;13.00;100.00;100482.44;6184443;23;20206;-82
2022/10/07 07:08:50;;;;;;;12.50;8.27;;;;;;;13.10;100.00;100471.22;6160536;23;20213;-82
2022/10/07 07:11:35;;;;;;;11.37;10.17;;;;;;;13.24;100.00;100475.50;6184877;23;20232;-82
2022/10/07 07:14:13;;;;;;;13.00;10.30;;;;;;;13.46;100.00;100471.41;6234863;23;20202;-83
2022/10/07 07:16:44;;;;;;;12.60;10.77;;;;;;;13.66;100.00;100482.03;6185167;23;20673;-83
2022/10/07 07:19:11;;;;;;;12.23;10.63;;;;;;;13.76;100.00;100474.31;6184963;23;20214;-82
2022/10/07 07:21:39;;;;;;;13.27;10.73;;;;;;;13.91;100.00;100479.34;6158977;23;20257;-83
2022/10/07 07:24:09;;;;;;;13.33;11.90;;;;;;;14.13;100.00;100472.50;6184165;23;20222;-82
2022/10/07 07:26:39;;;;;;;12.57;11.33;;;;;;;14.29;100.00;100468.41;6183109;23;20216;-83
2022/10/07 07:29:07;;;;;;;13.97;12.57;;;;;;;14.38;100.00;100481.41;6184292;23;20215;-83
2022/10/07 07:31:39;;;;;;;13.33;11.77;;;;;;;14.54;100.00;100471.91;6207897;23;20232;-82
2022/10/07 07:34:12;;;;;;;14.13;11.77;;;;;;;14.69;100.00;100493.09;6184484;23;20473;-82
2022/10/07 07:36:46;;;;;;;12.80;11.27;;;;;;;14.76;100.00;100480.34;6186773;23;20605;-83
2022/10/07 07:39:16;;;;;;;14.20;12.40;;;;;;;14.92;100.00;100466.25;6210805;23;20221;-82
2022/10/07 07:41:49;;;;;;;16.30;14.73;;;;;;;15.06;100.00;100475.00;6210417;23;20212;-83
2022/10/07 07:44:18;;;;;;;19.17;17.33;;;;;;;15.10;100.00;100463.50;6212543;23;20283;-82
2022/10/07 07:46:49;;;;;;;19.73;17.73;;;;;;;15.19;100.00;100459.44;6162433;23;20209;-85
2022/10/07 07:49:19;;;;;;;20.03;18.07;;;;;;;15.22;100.00;100460.84;6186615;23;20215;-82
2022/10/07 07:51:46;;;;;;;20.97;18.77;;;;;;;15.17;100.00;100463.41;6183477;23;20218;-82
2022/10/07 07:54:19;;;;;;;22.97;19.40;;;;;;;15.25;100.00;100455.00;6216110;22;20212;-84
2022/10/07 07:56:47;;;;;;;21.73;19.53;;;;;;;15.35;100.00;100464.16;6216342;23;20210;-83
2022/10/07 07:59:16;;;;;;;20.60;18.60;;;;;;;15.49;100.00;100461.28;6216154;23;20235;-83
2022/10/07 08:01:44;;;;;;;20.80;18.47;;;;;;;15.57;100.00;100452.88;6216352;23;20212;-82
2022/10/07 08:04:12;;;;;;;20.33;18.10;;;;;;;15.73;100.00;100449.47;6215910;22;20212;-83
2022/10/07 08:06:39;;;;;;;20.73;17.70;;;;;;;15.83;100.00;100453.25;6243555;23;20540;-83
2022/10/07 08:09:06;;;;;;;19.37;17.33;;;;;;;15.93;100.00;100449.97;6216974;23;20661;-82
2022/10/07 08:11:34;;;;;;;19.80;17.70;;;;;;;15.97;100.00;100442.22;6216312;23;20213;-82
2022/10/07 08:14:02;;;;;;;19.10;17.10;;;;;;;16.13;100.00;100436.94;6215935;22;20204;-83
2022/10/07 08:16:32;;;;;;;19.57;17.60;;;;;;;16.23;100.00;100425.53;6216422;23;20208;-82
2022/10/07 08:18:59;;;;;;;17.70;16.00;;;;;;;16.29;100.00;100417.25;6216153;23;20259;-83
2022/10/07 08:21:31;;;;;;;17.97;16.27;;;;;;;16.48;100.00;100417.94;6215954;23;20225;-83
2022/10/07 08:24:01;;;;;;;17.33;15.53;;;;;;;16.60;100.00;100389.00;6243306;22;20232;-82
2022/10/07 08:26:33;;;;;;;15.60;14.00;;;;;;;16.93;100.00;100399.13;6217108;23;20216;-82
2022/10/07 08:29:03;;;;;;;15.33;13.73;;;;;;;17.14;100.00;100395.69;6241281;22;20700;-83
2022/10/07 08:31:30;;;;;;;15.73;14.23;;;;;;;17.29;100.00;100392.44;6216298;23;20205;-83
2022/10/07 08:33:58;;;;;;;14.43;13.03;;;;;;;17.50;100.00;100388.16;6216754;23;20581;-82
2022/10/07 08:36:27;;;;;;;11.93;10.73;;;;;;;17.71;100.00;100387.47;6242752;23;20214;-82
2022/10/07 08:38:53;;;;;;;11.10;10.03;;;;;;;17.93;100.00;100382.91;6202378;22;20253;-82
2022/10/07 08:41:32;;;;;;;11.63;9.67;;;;;;;18.18;100.00;100381.63;6246734;22;20208;-85
2022/10/07 08:44:16;;;;;;;10.90;9.87;;;;;;;18.27;100.00;100382.81;6246482;22;20208;-80
2022/10/07 08:47:16;;;;;;;12.60;11.33;;;;;;;18.28;100.00;100382.59;6211141;22;20200;-82
2022/10/07 08:50:03;;;;;;;11.30;10.33;;;;;;;18.34;100.00;100378.84;6273894;22;20211;-82
2022/10/07 08:52:34;;;;;;;12.93;11.13;;;;;;;18.53;100.00;100375.81;6246311;22;20218;-83
2022/10/07 08:55:01;;;;;;;11.43;10.33;;;;;;;18.53;100.00;100375.81;6260755;22;20724;-82
2022/10/07 08:57:36;;;;;;;10.97;9.60;;;;;;;18.64;100.00;100369.47;6241212;22;20700;-82
2022/10/07 09:00:05;;;;;;;9.63;8.37;;;;;;;18.77;100.00;100356.31;6239242;22;20205;-80
2022/10/07 09:03:06;;;;;;;8.73;7.80;;;;;;;18.82;100.00;100350.94;6242852;22;20215;-80
2022/10/07 09:05:37;;;;;;;13.70;10.20;;;;;;;18.87;100.00;100345.56;6241662;23;20224;-80
2022/10/07 09:08:11;;;;;;;10.90;9.80;;;;;;;19.00;100.00;100344.31;6242483;22;20292;-82
2022/10/07 09:11:14;;;;;;;11.83;10.27;;;;;;;18.84;100.00;100342.53;6241263;23;20283;-83
2022/10/07 09:13:49;;;;;;;10.33;9.20;;;;;;;18.92;100.00;100332.03;6241133;23;20280;-82
2022/10/07 09:16:40;;;;;;;11.77;10.70;;;;;;;18.92;100.00;100342.06;6241144;22;20205;-83
2022/10/07 09:19:12;;;;;;;10.50;9.57;;;;;;;18.90;100.00;100325.19;6241004;23;20284;-83
2022/10/07 09:21:43;;;;;;;11.60;10.50;;;;;;;18.97;100.00;100330.44;6241274;23;20211;-83
2022/10/07 09:24:19;;;;;;;12.70;9.03;;;;;;;19.05;100.00;100319.91;6242204;22;21007;-82
2022/10/07 09:26:46;;;;;;;12.00;9.37;;;;;;;18.98;100.00;100316.63;6242827;22;20283;-83
2022/10/07 09:29:13;;;;;;;9.53;8.53;;;;;;;18.94;100.00;100311.97;6242699;22;20649;-83
2022/10/07 09:31:39;;;;;;;9.63;8.70;;;;;;;19.08;100.00;100302.31;6242749;22;20211;-83
2022/10/07 09:34:18;;;;;;;10.20;8.47;;;;;;;19.17;98.91;100293.41;6242147;22;20218;-82
2022/10/07 09:37:07;;;;;;;8.13;7.23;;;;;;;19.20;98.77;100305.66;6216117;23;20232;-82
2022/10/07 09:39:34;;;;;;;9.43;7.73;;;;;;;19.26;95.97;100294.56;6242898;22;20290;-83
2022/10/07 09:42:05;;;;;;;8.90;8.20;;;;;;;19.16;98.96;100294.50;6240840;22;20211;-83
2022/10/07 09:44:32;;;;;;;9.23;8.33;;;;;;;19.36;98.38;100291.13;6240857;23;20202;-82
2022/10/07 09:47:12;;;;;;;8.60;7.80;;;;;;;19.35;95.94;100281.31;6242749;22;20213;-83
2022/10/07 09:49:44;;;;;;;8.60;7.80;;;;;;;19.44;95.73;100279.78;6240937;23;20246;-83
2022/10/07 09:52:26;;;;;;;9.60;8.63;;;;;;;19.44;94.70;100282.50;6219059;22;20217;-82
2022/10/07 09:54:55;;;;;;;9.10;8.20;;;;;;;19.48;94.23;100280.91;6273324;22;20225;-82
2022/10/07 09:57:24;;;;;;;9.27;8.37;;;;;;;19.48;91.20;100280.91;6272576;22;20252;-82
2022/10/07 09:59:51;;;;;;;9.57;8.57;;;;;;;19.43;93.38;100269.97;6272901;22;20207;-82
2022/10/07 10:02:21;;;;;;;10.23;9.07;;;;;;;19.44;89.96;100268.91;6270842;22;20214;-82
2022/10/07 10:04:53;;;;;;;9.57;8.10;;;;;;;19.44;93.16;100266.19;6273001;22;20201;-83
2022/10/07 10:07:24;;;;;;;11.33;8.20;;;;;;;19.40;90.96;100275.09;6246289;22;20221;-82
2022/10/07 10:09:52;;;;;;;10.10;8.63;;;;;;;19.47;91.83;100262.13;6271437;22;20593;-82
2022/10/07 10:12:22;;;;;;;10.30;9.30;;;;;;;19.50;91.33;100262.44;6230362;22;20561;-84
2022/10/07 10:14:57;;;;;;;8.90;8.10;;;;;;;19.58;90.14;100255.69;6246035;22;20255;-81
2022/10/07 10:17:36;;;;;;;10.13;8.60;;;;;;;19.61;88.89;100255.97;6272817;22;20275;-83
2022/10/07 10:20:45;;;;;;;8.30;7.50;;;;;;;19.84;88.48;100254.72;6272285;22;20210;-81
2022/10/07 10:23:33;;;;;;;10.57;8.30;;;;;;;20.04;83.58;100254.81;6248446;22;20278;-81
2022/10/07 10:26:24;;;;;;;10.83;8.03;;;;;;;20.03;83.19;100242.28;6245604;22;20552;-82
2022/10/07 10:29:04;;;;;;;8.57;7.77;;;;;;;20.21;81.26;100239.06;6241178;23;20667;-81
2022/10/07 10:32:00;;;;;;;10.27;7.60;;;;;;;20.26;79.75;100229.28;6215617;23;20214;-81
2022/10/07 10:34:56;;;;;;;8.33;7.53;;;;;;;20.31;79.37;100230.16;6241272;23;20209;-81
2022/10/07 10:37:42;;;;;;;9.83;8.93;;;;;;;20.33;79.08;100227.16;6215520;23;20233;-81
2022/10/07 10:40:21;;;;;;;8.67;7.93;;;;;;;20.35;78.40;100230.41;6215013;23;20209;-81
2022/10/07 10:42:53;;;;;;;9.77;8.67;;;;;;;20.26;79.75;100216.50;6215275;23;20201;-81
2022/10/07 10:45:31;;;;;;;12.07;8.87;;;;;;;20.20;80.00;100221.09;6241817;23;20659;-82
2022/10/07 10:48:10;;;;;;;8.87;7.97;;;;;;;20.28;80.48;100205.34;6241850;23;20222;-81
2022/10/07 10:50:37;;;;;;;10.63;9.00;;;;;;;20.36;79.73;100213.00;6245961;22;20202;-81
2022/10/07 10:53:23;;;;;;;9.33;8.43;;;;;;;20.27;79.76;100209.97;6245477;22;20210;-81
2022/10/07 10:56:04;;;;;;;10.40;9.37;;;;;;;20.31;80.36;100215.72;6272631;22;20237;-81
2022/10/07 10:58:51;;;;;;;9.93;9.03;;;;;;;20.39;80.83;100193.44;6272234;22;20211;-81
2022/10/07 11:01:31;;;;;;;10.53;9.47;;;;;;;20.30;82.03;100197.72;6245875;22;20229;-81
2022/10/07 11:04:24;;;;;;;10.57;8.77;;;;;;;20.25;80.54;100195.81;6245847;22;20214;-81
2022/10/07 11:06:59;;;;;;;9.70;8.70;;;;;;;20.30;80.87;100195.84;6244923;22;20206;-81
2022/10/07 11:09:42;;;;;;;10.40;9.40;;;;;;;20.27;80.89;100190.94;6246356;22;20216;-81
2022/10/07 11:12:38;;;;;;;9.90;9.00;;;;;;;20.20;82.51;100187.66;6246664;22;20218;-81
2022/10/07 11:15:19;;;;;;;10.17;9.20;;;;;;;20.42;82.08;100191.00;6211053;22;20201;-82
2022/10/07 11:17:48;;;;;;;10.47;9.53;;;;;;;20.42;80.77;100177.38;6247738;22;20289;-82
2022/10/07 11:20:20;;;;;;;12.20;9.13;;;;;;;20.47;81.38;100179.28;6272013;22;20211;-80
2022/10/07 11:22:52;;;;;;;10.90;9.90;;;;;;;20.26;81.64;100177.59;6275036;22;20202;-82
2022/10/07 11:25:24;;;;;;;10.17;9.23;;;;;;;20.30;83.27;100174.09;6247854;22;20237;-82
2022/10/07 11:27:52;;;;;;;10.60;9.60;;;;;;;20.29;83.58;100160.75;6274366;22;20229;-81
2022/10/07 11:30:22;;;;;;;9.90;9.10;;;;;;;20.39;82.56;100155.34;6273772;22;20220;-81
2022/10/07 11:32:54;;;;;;;10.37;9.33;;;;;;;20.42;82.37;100150.16;6274169;22;20459;-82
2022/10/07 11:35:36;;;;;;;11.73;9.33;;;;;;;20.45;82.79;100141.44;6247242;22;20728;-81
2022/10/07 11:38:09;;;;;;;11.97;8.97;;;;;;;20.52;81.62;100141.19;6274462;22;20210;-81
2022/10/07 11:40:42;;;;;;;10.23;9.17;;;;;;;20.70;82.01;100135.19;6274532;22;20597;-82
2022/10/07 11:43:32;;;;;;;8.93;7.93;;;;;;;20.94;81.88;100127.25;6274134;22;20233;-81
2022/10/07 11:46:07;;;;;;;8.70;7.90;;;;;;;21.11;79.21;100125.03;6247835;22;20230;-81
2022/10/07 11:48:44;;;;;;;9.40;8.03;;;;;;;21.20;76.08;100117.13;6273692;22;20538;-82
2022/10/07 11:51:39;;;;;;;8.60;7.80;;;;;;;21.25;76.02;100103.50;6274960;22;20677;-81
2022/10/07 11:54:13;;;;;;;8.30;6.93;;;;;;;21.18;75.13;100100.25;6273328;22;20208;-81